Lake Forest, Illinois
Current Conditions -  °F | °C
As of 3:52 PM on Saturday 25 Oct 2014 (Local Time) from KPWK Reporting Station
Clear Clear  
Wind Chill: 72°   Ceiling: Unl
Heat Index: 72°   Visibility: 10mi
Dew Point: 24°   Wind: 17mph
Humidity: 17%   Direction: 300°WNW
Pressure: 29.92"   Gusts: 29mph
Location:  42.25°N, 87.84°W
Report Text: KPWK 252052Z 30015G25KT 10SM CLR 22/M04 A2992 RMK AO2 SLP128 T02221044 56009
Loading
Personal Weather Stations






























Interactive Weather Map
Tropical Storm Tracking
New forecast layout! Learn more

10-Day Weather Forecast

Advertisements
Track Severe Weather on mobile